Zagreb — 9AA5910 — position and weather

sailwx.info

Track history (hours):
 
Tides and Currents Weather Stations Pressure Air Temp Water Temp Dewpoint Dewpoint Depression Visibility Wind Speed Wind Dir Waves Ship Positions

Zagreb

Last reported at 2016-Sep-29 23:33 UTC. Time now 2016-Sep-30 01:31 UTC.
Position N 59°54' E 028°40'.

Length 229 m; draft 8.1 m.

Type: Cargo ship. MMSI: 238249000.

Date/timePositionNaut miles runAvg speedWind from/ knotsBaromVisibWave heightAir tempDewpointWater temp
2016-Sep-29 23:33N 59°54' E 028°40'0 0.1
2016-Sep-29 21:33N 59°54' E 028°40'0 0.0
2016-Sep-29 20:33N 59°54' E 028°40'0 0.0
2016-Sep-29 19:21N 59°54' E 028°40'0 0.0
2016-Sep-29 16:33N 59°54' E 028°40'0 0.0
2016-Sep-29 15:33N 59°54' E 028°40'0 0.0
2016-Sep-29 14:24N 59°54' E 028°40'0 0.0
2016-Sep-29 13:27N 59°54' E 028°40'0 0.0
2016-Sep-29 08:33N 59°54' E 028°40'0 0.1
2016-Sep-29 07:33N 59°54' E 028°40'0 0.0
2016-Sep-29 00:24N 59°54' E 028°40'0 0.0
2016-Sep-28 21:27N 59°54' E 028°40'11 5.5
2016-Sep-28 19:33N 60°03' E 028°27'3712.3
2016-Sep-28 16:33N 60°01' E 027°14'1313.2
2016-Sep-28 15:33N 59°59' E 026°48'9914.1
2016-Sep-28 08:32N 59°35' E 023°37'41813.1
2016-Sep-27 00:33N 55°11' E 013°37'4010.0
2016-Sep-26 20:33N 55°36' E 012°42'1111.2
2016-Sep-26 19:33N 55°47' E 012°42'4812.0
2016-Sep-26 15:32N 56°29' E 011°58'2914.5
2016-Sep-26 13:33N 56°57' E 011°44'2713.7
2016-Sep-26 11:34N 57°22' E 011°27'4013.2
2016-Sep-26 08:32N 57°47' E 010°29'19312.9
2016-Sep-25 17:33N 55°12' E 007°00'1413.8
2016-Sep-25 16:33N 54°58' E 007°00'1413.8
2016-Sep-25 15:33N 54°44' E 006°60'1312.9
2016-Sep-25 14:33N 54°32' E 006°53'2813.9
2016-Sep-25 12:33N 54°11' E 006°22'1414.0
2016-Sep-25 11:33N 53°57' E 006°23'1413.8
2016-Sep-25 10:33N 53°43' E 006°22'10 9.7
2016-Sep-25 09:33N 53°36' E 006°34'14 7.0
2016-Sep-25 07:33N 53°27' E 006°51'0 0.0
2016-Sep-25 04:33N 53°27' E 006°51'0 0.0
2016-Sep-25 00:33N 53°27' E 006°51'0 0.0
2016-Sep-24 22:33N 53°27' E 006°51'0 0.0
2016-Sep-24 21:33N 53°27' E 006°51'0 0.0
2016-Sep-24 19:33N 53°27' E 006°51'0 0.0
2016-Sep-24 18:33N 53°27' E 006°51'0 0.0
2016-Sep-24 17:33N 53°27' E 006°51'0 0.0
2016-Sep-24 16:33N 53°27' E 006°51'0 0.0
2016-Sep-24 14:33N 53°27' E 006°51'0 0.0
2016-Sep-24 12:33N 53°27' E 006°51'0 0.0
2016-Sep-24 10:33N 53°27' E 006°51'0 0.0
2016-Sep-24 09:33N 53°27' E 006°51'0 0.0
2016-Sep-24 03:30N 53°27' E 006°51'0 0.0
2016-Sep-24 02:33N 53°27' E 006°51'0 0.0
2016-Sep-24 01:33N 53°27' E 006°51'0 0.0
2016-Sep-24 00:33N 53°27' E 006°51'0 0.0
2016-Sep-23 19:33N 53°27' E 006°51'0 0.0
2016-Sep-23 17:30N 53°27' E 006°51'0 0.0
2016-Sep-23 16:33N 53°27' E 006°51'0 0.0
2016-Sep-23 15:33N 53°27' E 006°51'0 0.0
2016-Sep-23 13:33N 53°27' E 006°51'0 0.0
2016-Sep-23 09:33N 53°27' E 006°51'0 0.0
2016-Sep-23 06:33N 53°27' E 006°51'0 0.0
2016-Sep-23 04:33N 53°27' E 006°51'0 0.0
2016-Sep-23 03:33N 53°27' E 006°51'0 0.0
2016-Sep-23 02:33N 53°27' E 006°51'0 0.0
2016-Sep-23 01:33N 53°27' E 006°51'0 0.0
2016-Sep-23 00:33N 53°27' E 006°51'0 0.0
2016-Sep-22 23:30N 53°27' E 006°51'0 0.0
2016-Sep-22 20:33N 53°27' E 006°51'0 0.0
2016-Sep-22 12:33N 53°27' E 006°51'0 0.0
2016-Sep-22 04:33N 53°27' E 006°51'0 0.0
2016-Sep-22 03:33N 53°27' E 006°51'0 0.0
2016-Sep-22 00:30N 53°27' E 006°51'0 0.1
2016-Sep-21 23:33N 53°27' E 006°51'0 0.1
2016-Sep-21 22:33N 53°27' E 006°51'0 0.0
2016-Sep-21 19:30N 53°27' E 006°51'0 0.0
2016-Sep-21 16:33N 53°27' E 006°51'0 0.0
2016-Sep-21 09:33N 53°27' E 006°51'0 0.0
2016-Sep-21 08:33N 53°27' E 006°51'0 0.0
2016-Sep-21 05:33N 53°27' E 006°51'0 0.0
2016-Sep-21 03:33N 53°27' E 006°51'0 0.0
2016-Sep-21 02:30N 53°27' E 006°51'51 5.7
2016-Sep-20 17:33N 53°34' E 005°26'3511.1
2016-Sep-20 14:21N 53°15' E 004°35'1011.9
2016-Sep-20 13:33N 53°07' E 004°27'3411.5
2016-Sep-20 10:33N 52°35' E 004°06'20 9.8
2016-Sep-20 08:33N 52°28' E 004°37'1 1.5
2016-Sep-20 07:33N 52°28' E 004°39'6 6.2
2016-Sep-20 06:34N 52°25' E 004°48'1 0.2
2016-Sep-20 02:32N 52°25' E 004°49'  
Track history (hours):
 
Tides and Currents Weather Stations Pressure Air Temp Water Temp Dewpoint Dewpoint Depression Visibility Wind Speed Wind Dir Waves Ship Positions

Zagreb

Last reported at 2016-Sep-29 23:33 UTC. Time now 2016-Sep-30 01:31 UTC.
Position N 59°54' E 028°40'.

Length 229 m; draft 8.1 m.

Type: Cargo ship. MMSI: 238249000.

Date/timePositionNaut miles runAvg speedWind from/ knotsBaromVisibWave heightAir tempDewpointWater temp
2016-Sep-29 23:33N 59°54' E 028°40'0 0.1
2016-Sep-29 21:33N 59°54' E 028°40'0 0.0
2016-Sep-29 20:33N 59°54' E 028°40'0 0.0
2016-Sep-29 19:21N 59°54' E 028°40'0 0.0
2016-Sep-29 16:33N 59°54' E 028°40'0 0.0
2016-Sep-29 15:33N 59°54' E 028°40'0 0.0
2016-Sep-29 14:24N 59°54' E 028°40'0 0.0
2016-Sep-29 13:27N 59°54' E 028°40'0 0.0
2016-Sep-29 08:33N 59°54' E 028°40'0 0.1
2016-Sep-29 07:33N 59°54' E 028°40'0 0.0
2016-Sep-29 00:24N 59°54' E 028°40'0 0.0
2016-Sep-28 21:27N 59°54' E 028°40'11 5.5
2016-Sep-28 19:33N 60°03' E 028°27'3712.3
2016-Sep-28 16:33N 60°01' E 027°14'1313.2
2016-Sep-28 15:33N 59°59' E 026°48'9914.1
2016-Sep-28 08:32N 59°35' E 023°37'41813.1
2016-Sep-27 00:33N 55°11' E 013°37'4010.0
2016-Sep-26 20:33N 55°36' E 012°42'1111.2
2016-Sep-26 19:33N 55°47' E 012°42'4812.0
2016-Sep-26 15:32N 56°29' E 011°58'2914.5
2016-Sep-26 13:33N 56°57' E 011°44'2713.7
2016-Sep-26 11:34N 57°22' E 011°27'4013.2
2016-Sep-26 08:32N 57°47' E 010°29'19312.9
2016-Sep-25 17:33N 55°12' E 007°00'1413.8
2016-Sep-25 16:33N 54°58' E 007°00'1413.8
2016-Sep-25 15:33N 54°44' E 006°60'1312.9
2016-Sep-25 14:33N 54°32' E 006°53'2813.9
2016-Sep-25 12:33N 54°11' E 006°22'1414.0
2016-Sep-25 11:33N 53°57' E 006°23'1413.8
2016-Sep-25 10:33N 53°43' E 006°22'10 9.7
2016-Sep-25 09:33N 53°36' E 006°34'14 7.0
2016-Sep-25 07:33N 53°27' E 006°51'0 0.0
2016-Sep-25 04:33N 53°27' E 006°51'0 0.0
2016-Sep-25 00:33N 53°27' E 006°51'0 0.0
2016-Sep-24 22:33N 53°27' E 006°51'0 0.0
2016-Sep-24 21:33N 53°27' E 006°51'0 0.0
2016-Sep-24 19:33N 53°27' E 006°51'0 0.0
2016-Sep-24 18:33N 53°27' E 006°51'0 0.0
2016-Sep-24 17:33N 53°27' E 006°51'0 0.0
2016-Sep-24 16:33N 53°27' E 006°51'0 0.0
2016-Sep-24 14:33N 53°27' E 006°51'0 0.0
2016-Sep-24 12:33N 53°27' E 006°51'0 0.0
2016-Sep-24 10:33N 53°27' E 006°51'0 0.0
2016-Sep-24 09:33N 53°27' E 006°51'0 0.0
2016-Sep-24 03:30N 53°27' E 006°51'0 0.0
2016-Sep-24 02:33N 53°27' E 006°51'0 0.0
2016-Sep-24 01:33N 53°27' E 006°51'0 0.0
2016-Sep-24 00:33N 53°27' E 006°51'0 0.0
2016-Sep-23 19:33N 53°27' E 006°51'0 0.0
2016-Sep-23 17:30N 53°27' E 006°51'0 0.0
2016-Sep-23 16:33N 53°27' E 006°51'0 0.0
2016-Sep-23 15:33N 53°27' E 006°51'0 0.0
2016-Sep-23 13:33N 53°27' E 006°51'0 0.0
2016-Sep-23 09:33N 53°27' E 006°51'0 0.0
2016-Sep-23 06:33N 53°27' E 006°51'0 0.0
2016-Sep-23 04:33N 53°27' E 006°51'0 0.0
2016-Sep-23 03:33N 53°27' E 006°51'0 0.0
2016-Sep-23 02:33N 53°27' E 006°51'0 0.0
2016-Sep-23 01:33N 53°27' E 006°51'0 0.0
2016-Sep-23 00:33N 53°27' E 006°51'0 0.0
2016-Sep-22 23:30N 53°27' E 006°51'0 0.0
2016-Sep-22 20:33N 53°27' E 006°51'0 0.0
2016-Sep-22 12:33N 53°27' E 006°51'0 0.0
2016-Sep-22 04:33N 53°27' E 006°51'0 0.0
2016-Sep-22 03:33N 53°27' E 006°51'0 0.0
2016-Sep-22 00:30N 53°27' E 006°51'0 0.1
2016-Sep-21 23:33N 53°27' E 006°51'0 0.1
2016-Sep-21 22:33N 53°27' E 006°51'0 0.0
2016-Sep-21 19:30N 53°27' E 006°51'0 0.0
2016-Sep-21 16:33N 53°27' E 006°51'0 0.0
2016-Sep-21 09:33N 53°27' E 006°51'0 0.0
2016-Sep-21 08:33N 53°27' E 006°51'0 0.0
2016-Sep-21 05:33N 53°27' E 006°51'0 0.0
2016-Sep-21 03:33N 53°27' E 006°51'0 0.0
2016-Sep-21 02:30N 53°27' E 006°51'51 5.7
2016-Sep-20 17:33N 53°34' E 005°26'3511.1
2016-Sep-20 14:21N 53°15' E 004°35'1011.9
2016-Sep-20 13:33N 53°07' E 004°27'3411.5
2016-Sep-20 10:33N 52°35' E 004°06'20 9.8
2016-Sep-20 08:33N 52°28' E 004°37'1 1.5
2016-Sep-20 07:33N 52°28' E 004°39'6 6.2
2016-Sep-20 06:34N 52°25' E 004°48'1 0.2
2016-Sep-20 02:32N 52°25' E 004°49'  

Dump ship's entire track history